Time;durP1;ratioP1;P1;durP2;ratioP2;P2;SDS_P1;SDS_P2;PMS_P1;PMS_P2;Temp;Humidity;BMP_temperature;BMP_pressure;BME280_temperature;BME280_humidity;BME280_pressure;Samples;Min_cycle;Max_cycle;Signal;HPM_P1;HPM_P2
2022/05/03 00:00:59;;;;;;;15.73;8.10;;;3.50;99.90;;;;;;5003504;28;20084;-88
2022/05/03 00:03:29;;;;;;;20.13;9.25;;;3.50;99.90;;;;;;4988226;28;20042;-89
2022/05/03 00:06:10;;;;;;;20.55;9.43;;;3.40;99.90;;;;;;5004139;28;20069;-88
2022/05/03 00:08:36;;;;;;;15.85;8.90;;;3.40;99.90;;;;;;5003811;28;20100;-87
2022/05/03 00:11:05;;;;;;;21.33;10.13;;;4.50;99.90;;;;;;5021191;28;20046;-88
2022/05/03 00:13:44;;;;;;;19.40;9.68;;;3.40;99.90;;;;;;5003353;28;20046;-88
2022/05/03 00:16:13;;;;;;;18.75;10.25;;;3.30;99.90;;;;;;5021203;28;20133;-88
2022/05/03 00:18:39;;;;;;;19.77;10.45;;;3.20;99.90;;;;;;5020916;28;20091;-87
2022/05/03 00:21:05;;;;;;;19.90;10.85;;;3.20;99.90;;;;;;5003689;28;20048;-88
2022/05/03 00:23:32;;;;;;;26.50;12.57;;;3.20;99.90;;;;;;5004220;28;20050;-89
2022/05/03 00:25:58;;;;;;;22.88;12.02;;;4.40;99.90;;;;;;5006277;28;20046;-88
2022/05/03 00:28:24;;;;;;;27.45;13.45;;;3.10;99.90;;;;;;5035369;28;20033;-88
2022/05/03 00:30:50;;;;;;;23.70;11.75;;;3.10;99.90;;;;;;5034578;28;20045;-89
2022/05/03 00:33:16;;;;;;;26.63;13.40;;;4.10;99.90;;;;;;5015069;28;20053;-88
2022/05/03 00:35:43;;;;;;;26.27;13.90;;;3.20;99.90;;;;;;5007422;28;20072;-88
2022/05/03 00:38:09;;;;;;;25.20;14.13;;;3.80;99.90;;;;;;5006670;28;20085;-88
2022/05/03 00:40:38;;;;;;;34.70;14.65;;;2.80;99.90;;;;;;5022375;28;20053;-89
2022/05/03 00:43:44;;;;;;;28.42;13.32;;;4.10;99.90;;;;;;5022324;28;20070;-88
2022/05/03 00:46:16;;;;;;;26.88;13.52;;;3.00;99.90;;;;;;5022313;28;20041;-88
2022/05/03 00:49:17;;;;;;;24.55;13.68;;;2.90;99.90;;;;;;5023418;28;20043;-88
2022/05/03 00:52:01;;;;;;;27.38;13.40;;;3.00;99.90;;;;;;5020496;28;20069;-89
2022/05/03 00:55:01;;;;;;;34.40;13.85;;;3.00;99.90;;;;;;4987652;28;20050;-89
2022/05/03 00:57:38;;;;;;;26.63;14.48;;;3.00;99.90;;;;;;5021038;28;20050;-89
2022/05/03 01:00:06;;;;;;;30.73;14.48;;;3.00;99.90;;;;;;4987019;28;20096;-89
2022/05/03 01:02:55;;;;;;;32.38;16.10;;;2.90;99.90;;;;;;5003408;28;20054;-89
2022/05/03 01:05:27;;;;;;;33.53;14.65;;;3.00;99.90;;;;;;5020498;28;20130;-89
2022/05/03 01:08:00;;;;;;;28.27;13.98;;;2.90;99.90;;;;;;5020365;28;20046;-89
2022/05/03 01:10:43;;;;;;;28.42;14.35;;;2.90;99.90;;;;;;5003227;28;20069;-90
2022/05/03 01:13:19;;;;;;;29.90;13.85;;;2.80;99.90;;;;;;5020896;28;20072;-88
2022/05/03 01:15:50;;;;;;;31.38;13.77;;;2.80;99.90;;;;;;5020878;28;20503;-88
2022/05/03 01:18:26;;;;;;;28.25;14.57;;;2.80;99.90;;;;;;5020321;28;20041;-88
2022/05/03 01:21:11;;;;;;;34.58;15.15;;;2.70;99.90;;;;;;5019643;28;20042;-89
2022/05/03 01:23:58;;;;;;;27.45;13.95;;;2.60;99.90;;;;;;5003200;28;20068;-89
2022/05/03 01:26:52;;;;;;;30.05;14.00;;;2.60;99.90;;;;;;5003792;28;20150;-89
2022/05/03 01:29:27;;;;;;;29.30;14.45;;;2.60;99.90;;;;;;5004976;28;20099;-88
2022/05/03 01:31:58;;;;;;;29.60;13.35;;;3.00;99.90;;;;;;5009836;28;20038;-90
2022/05/03 01:34:26;;;;;;;28.25;14.75;;;2.50;99.90;;;;;;5035884;28;20038;-88
2022/05/03 01:37:04;;;;;;;29.55;14.90;;;2.40;99.90;;;;;;5033494;28;20026;-89
2022/05/03 01:40:09;;;;;;;28.40;14.10;;;2.50;99.90;;;;;;5014473;28;20104;-87
2022/05/03 01:43:03;;;;;;;31.77;15.15;;;2.40;99.90;;;;;;4981668;28;20093;-87
2022/05/03 01:45:35;;;;;;;35.92;16.65;;;2.40;99.90;;;;;;5005517;28;20049;-89
2022/05/03 01:48:17;;;;;;;39.22;19.20;;;2.70;99.90;;;;;;5023842;28;20045;-89
2022/05/03 01:50:48;;;;;;;38.80;20.85;;;2.40;99.90;;;;;;5006455;28;20123;-89
2022/05/03 01:53:34;;;;;;;41.70;21.10;;;2.40;99.90;;;;;;5023626;28;20161;-89
2022/05/03 01:56:32;;;;;;;39.42;20.02;;;3.00;99.90;;;;;;5022277;28;20042;-88
2022/05/03 01:59:20;;;;;;;37.35;18.70;;;2.60;99.90;;;;;;5076607;23;20864;-87
2022/05/03 02:01:55;;;;;;;37.95;18.05;;;2.60;99.90;;;;;;4985312;28;20067;-88
2022/05/03 02:04:48;;;;;;;36.22;17.15;;;3.40;99.90;;;;;;5029431;28;20141;-87
2022/05/03 02:07:35;;;;;;;38.33;18.48;;;2.50;99.90;;;;;;5015197;28;20046;-89
2022/05/03 02:10:22;;;;;;;41.10;18.30;;;2.40;99.90;;;;;;4983845;28;20516;-88
2022/05/03 02:12:53;;;;;;;40.58;18.13;;;2.40;99.90;;;;;;5002267;28;20086;-87
2022/05/03 02:15:36;;;;;;;37.58;20.77;;;2.40;99.90;;;;;;5001749;28;20078;-87
2022/05/03 02:18:14;;;;;;;38.65;20.13;;;2.40;99.90;;;;;;5001729;28;20058;-88
2022/05/03 02:21:00;;;;;;;40.95;19.58;;;2.40;99.90;;;;;;5003235;28;20046;-88
2022/05/03 02:23:45;;;;;;;35.10;19.53;;;2.80;99.90;;;;;;5003198;28;20046;-87
2022/05/03 02:26:31;;;;;;;43.83;19.77;;;2.40;99.90;;;;;;5002834;28;20086;-88
2022/05/03 02:29:02;;;;;;;43.58;20.70;;;2.40;99.90;;;;;;5003179;28;20085;-87
2022/05/03 02:31:37;;;;;;;46.38;21.40;;;2.30;99.90;;;;;;5000502;28;20561;-87
2022/05/03 02:34:29;;;;;;;44.13;20.58;;;2.40;99.90;;;;;;5002260;28;20050;-88
2022/05/03 02:37:25;;;;;;;41.70;20.17;;;2.40;99.90;;;;;;5003350;28;20070;-87
2022/05/03 02:40:13;;;;;;;41.17;19.02;;;2.30;99.90;;;;;;5002556;28;20538;-87
2022/05/03 02:42:39;;;;;;;39.80;18.17;;;2.30;99.90;;;;;;5003124;28;20494;-87
2022/05/03 02:45:11;;;;;;;39.22;18.80;;;2.70;99.90;;;;;;5017879;28;20050;-87
2022/05/03 02:47:54;;;;;;;40.03;18.83;;;2.20;99.90;;;;;;5001908;28;20471;-88
2022/05/03 02:50:26;;;;;;;39.10;18.52;;;2.20;99.90;;;;;;5002259;28;20054;-87
2022/05/03 02:53:24;;;;;;;36.50;18.42;;;2.10;99.90;;;;;;5002791;28;20051;-88
2022/05/03 02:56:06;;;;;;;37.70;17.63;;;2.00;99.90;;;;;;4981618;28;20057;-87
2022/05/03 02:59:05;;;;;;;38.13;19.30;;;2.00;99.90;;;;;;5003128;28;20038;-88
2022/05/03 03:02:14;;;;;;;39.53;18.65;;;2.00;99.90;;;;;;4999828;28;20069;-86
2022/05/03 03:05:08;;;;;;;32.22;17.23;;;2.00;99.90;;;;;;4983608;28;20062;-86
2022/05/03 03:07:53;;;;;;;37.58;18.50;;;2.00;99.90;;;;;;4983440;28;20039;-88
2022/05/03 03:10:35;;;;;;;36.67;19.20;;;2.00;99.90;;;;;;4982419;28;20101;-87
2022/05/03 03:13:30;;;;;;;46.05;20.27;;;2.00;99.90;;;;;;4995332;28;20075;-88
2022/05/03 03:15:56;;;;;;;40.30;19.58;;;2.00;99.90;;;;;;4978796;28;20055;-88
2022/05/03 03:18:24;;;;;;;44.60;21.80;;;2.70;99.90;;;;;;4946243;29;20075;-88
2022/05/03 03:20:55;;;;;;;51.63;21.98;;;2.60;99.90;;;;;;4962985;29;20047;-88
2022/05/03 03:23:25;;;;;;;47.50;22.00;;;2.70;99.90;;;;;;4969099;28;20050;-87
2022/05/03 03:25:52;;;;;;;40.88;22.23;;;2.50;99.90;;;;;;4980762;28;20055;-89
2022/05/03 03:28:22;;;;;;;48.70;23.80;;;2.80;99.90;;;;;;4980973;28;20042;-86
2022/05/03 03:30:49;;;;;;;47.05;23.27;;;2.90;99.90;;;;;;4980980;28;20046;-87
2022/05/03 03:33:19;;;;;;;47.80;22.65;;;3.10;99.90;;;;;;4980544;28;20114;-88
2022/05/03 03:35:47;;;;;;;48.80;24.85;;;3.30;99.90;;;;;;4980369;28;20047;-89
2022/05/03 03:38:13;;;;;;;43.55;23.15;;;3.40;99.90;;;;;;4981154;28;20035;-88
2022/05/03 03:40:40;;;;;;;49.08;25.17;;;3.60;99.90;;;;;;4987956;28;20107;-86
2022/05/03 03:43:09;;;;;;;45.03;24.70;;;4.40;99.90;;;;;;5000026;28;20021;-87
2022/05/03 03:45:35;;;;;;;44.40;23.45;;;3.90;99.90;;;;;;5000137;28;20050;-87
2022/05/03 03:48:01;;;;;;;45.55;23.45;;;4.00;99.90;;;;;;5000285;28;20038;-87
2022/05/03 03:50:27;;;;;;;46.67;24.23;;;4.10;99.90;;;;;;4982355;28;20038;-88
2022/05/03 03:52:53;;;;;;;43.15;23.80;;;4.20;99.90;;;;;;4981946;28;20133;-87
2022/05/03 03:55:20;;;;;;;45.97;23.38;;;4.30;99.90;;;;;;4980493;28;20049;-88
2022/05/03 03:57:46;;;;;;;44.70;23.27;;;4.10;99.90;;;;;;4979553;28;20038;-88
2022/05/03 04:00:14;;;;;;;46.38;25.17;;;4.20;99.90;;;;;;4977258;28;20065;-88
2022/05/03 04:02:41;;;;;;;44.95;24.15;;;4.10;99.90;;;;;;4978311;28;20086;-88
2022/05/03 04:05:15;;;;;;;46.22;22.70;;;3.60;99.90;;;;;;4978971;28;20444;-88
2022/05/03 04:07:44;;;;;;;40.47;22.83;;;3.70;99.90;;;;;;4978073;28;20415;-88
2022/05/03 04:10:10;;;;;;;41.10;21.40;;;3.80;99.90;;;;;;4978499;28;20109;-87
2022/05/03 04:12:36;;;;;;;42.63;22.70;;;2.90;99.90;;;;;;4962322;28;20046;-88
2022/05/03 04:15:03;;;;;;;50.50;23.33;;;4.00;99.90;;;;;;4979690;28;20058;-87
2022/05/03 04:17:31;;;;;;;43.75;22.67;;;3.50;99.90;;;;;;4981309;28;20514;-88
2022/05/03 04:19:58;;;;;;;46.88;23.00;;;4.10;99.90;;;;;;4979997;28;20157;-87
2022/05/03 04:22:28;;;;;;;41.97;24.77;;;4.40;99.90;;;;;;4980193;28;20049;-87
2022/05/03 04:24:55;;;;;;;41.40;24.00;;;3.40;99.90;;;;;;4980243;28;20138;-88
2022/05/03 04:27:24;;;;;;;45.58;24.30;;;3.90;99.90;;;;;;4979876;28;20109;-87
2022/05/03 04:29:51;;;;;;;43.88;26.15;;;4.00;99.90;;;;;;4980736;28;20093;-87
2022/05/03 04:32:16;;;;;;;42.22;23.60;;;4.40;99.90;;;;;;4979381;28;20043;-87
2022/05/03 04:35:12;;;;;;;46.15;25.20;;;5.40;99.90;;;;;;4977872;28;20369;-87
2022/05/03 04:37:47;;;;;;;44.60;23.73;;;4.70;99.90;;;;;;4978514;28;20429;-87
2022/05/03 04:40:12;;;;;;;45.25;24.70;;;4.80;99.90;;;;;;4979299;28;20047;-87
2022/05/03 04:42:38;;;;;;;50.03;26.77;;;4.80;99.90;;;;;;4977625;28;20043;-88
2022/05/03 04:45:04;;;;;;;42.00;23.88;;;4.90;99.90;;;;;;4980141;28;20065;-88
2022/05/03 04:47:29;;;;;;;42.40;25.52;;;5.20;99.90;;;;;;4979242;28;20067;-89
2022/05/03 04:49:55;;;;;;;47.22;25.83;;;6.00;99.90;;;;;;4982075;28;20636;-87
2022/05/03 04:52:21;;;;;;;44.20;26.85;;;5.20;99.90;;;;;;4980454;28;20054;-88
2022/05/03 04:54:46;;;;;;;48.00;26.20;;;5.40;99.90;;;;;;4979335;28;20047;-88
2022/05/03 04:57:15;;;;;;;41.85;23.48;;;6.00;99.90;;;;;;4980137;28;20039;-88
2022/05/03 04:59:40;;;;;;;41.85;22.50;;;5.70;99.90;;;;;;4981045;28;20114;-87
2022/05/03 05:02:09;;;;;;;38.67;23.27;;;5.70;99.90;;;;;;4980868;28;20102;-88
2022/05/03 05:04:35;;;;;;;44.22;24.27;;;6.20;99.90;;;;;;4981542;28;20466;-87
2022/05/03 05:07:00;;;;;;;41.20;23.00;;;5.70;99.90;;;;;;4981845;28;20066;-87
2022/05/03 05:09:26;;;;;;;40.35;24.23;;;6.00;99.90;;;;;;4980687;28;20075;-89
2022/05/03 05:11:54;;;;;;;44.47;24.67;;;6.10;99.90;;;;;;4986560;28;20053;-89
2022/05/03 05:14:20;;;;;;;43.28;22.70;;;6.20;99.90;;;;;;4985980;28;20046;-89
2022/05/03 05:16:49;;;;;;;42.28;23.13;;;6.30;99.90;;;;;;4987484;28;20054;-87
2022/05/03 05:19:15;;;;;;;35.42;22.50;;;6.60;99.90;;;;;;4985869;28;20082;-87
2022/05/03 05:21:44;;;;;;;34.83;23.05;;;6.40;99.90;;;;;;4987761;28;20053;-87
2022/05/03 05:24:11;;;;;;;35.45;22.23;;;6.50;99.90;;;;;;4985193;28;20484;-88
2022/05/03 05:26:37;;;;;;;36.75;22.00;;;6.50;99.90;;;;;;4969595;28;20093;-87
2022/05/03 05:29:03;;;;;;;33.60;22.52;;;6.60;99.90;;;;;;4984865;28;20058;-86
2022/05/03 05:31:30;;;;;;;39.05;23.33;;;6.60;99.90;;;;;;4985764;28;20642;-87
2022/05/03 05:33:56;;;;;;;36.95;22.60;;;6.70;99.90;;;;;;4985661;28;20054;-87
2022/05/03 05:36:22;;;;;;;36.67;22.95;;;6.80;99.90;;;;;;5003175;28;20479;-88
2022/05/03 05:38:50;;;;;;;33.58;21.75;;;6.90;99.90;;;;;;4990408;28;20050;-87
2022/05/03 05:41:17;;;;;;;34.67;22.00;;;7.00;99.90;;;;;;5001763;28;20031;-88
2022/05/03 05:43:47;;;;;;;36.20;23.15;;;7.10;99.90;;;;;;5001232;28;20123;-87
2022/05/03 05:46:13;;;;;;;33.42;21.15;;;7.20;99.90;;;;;;4980151;28;20057;-88
2022/05/03 05:48:39;;;;;;;38.40;23.90;;;8.30;99.90;;;;;;4979709;28;20098;-89
2022/05/03 05:51:05;;;;;;;36.80;22.50;;;7.40;99.90;;;;;;4998642;28;20043;-88
2022/05/03 05:53:34;;;;;;;34.38;21.63;;;7.50;99.90;;;;;;5000118;28;20078;-88
2022/05/03 05:56:04;;;;;;;35.45;21.35;;;7.50;99.90;;;;;;4978037;28;20051;-89
2022/05/03 05:58:30;;;;;;;44.47;23.77;;;7.60;99.90;;;;;;4991084;28;20043;-89
2022/05/03 06:00:56;;;;;;;41.25;23.38;;;8.00;99.90;;;;;;4991068;28;20055;-86
2022/05/03 06:03:22;;;;;;;37.60;22.83;;;7.60;99.90;;;;;;4993267;28;20102;-89
2022/05/03 06:05:49;;;;;;;36.25;20.85;;;7.30;99.90;;;;;;4992061;28;20047;-87
2022/05/03 06:08:14;;;;;;;32.67;22.23;;;7.80;99.90;;;;;;4997258;28;20079;-88
2022/05/03 06:10:40;;;;;;;35.67;22.42;;;7.90;99.90;;;;;;5003176;28;20093;-88
2022/05/03 06:13:10;;;;;;;41.53;23.83;;;8.00;99.90;;;;;;4991028;28;20046;-88
2022/05/03 06:15:36;;;;;;;35.50;23.23;;;8.70;99.90;;;;;;4985598;28;20058;-88
2022/05/03 06:18:02;;;;;;;36.70;22.58;;;8.10;99.90;;;;;;4986425;28;20039;-88
2022/05/03 06:20:27;;;;;;;36.67;23.80;;;8.10;99.90;;;;;;4985559;28;20086;-88
2022/05/03 06:22:53;;;;;;;43.20;26.13;;;8.10;99.90;;;;;;4984552;28;20058;-88
2022/05/03 06:25:19;;;;;;;50.28;29.63;;;8.20;99.90;;;;;;4983977;28;20082;-88
2022/05/03 06:27:45;;;;;;;74.90;31.98;;;8.20;99.90;;;;;;4983413;28;20137;-89
2022/05/03 06:30:10;;;;;;;61.50;32.38;;;8.40;99.90;;;;;;4984582;28;20130;-87
2022/05/03 06:32:37;;;;;;;66.57;33.72;;;8.40;99.90;;;;;;4985313;28;20090;-89
2022/05/03 06:35:03;;;;;;;58.80;31.50;;;8.60;99.90;;;;;;4985345;28;20058;-89
2022/05/03 06:37:29;;;;;;;58.58;32.47;;;8.80;99.90;;;;;;4984897;28;20047;-89
2022/05/03 06:39:54;;;;;;;58.97;30.63;;;9.00;99.90;;;;;;4983739;28;20070;-87
2022/05/03 06:42:20;;;;;;;62.72;33.55;;;8.90;99.90;;;;;;4981042;28;20058;-89
2022/05/03 06:44:47;;;;;;;55.97;31.70;;;9.00;99.90;;;;;;4982852;28;20062;-89
2022/05/03 06:47:13;;;;;;;54.80;31.30;;;8.90;99.90;;;;;;4966573;28;20090;-89
2022/05/03 06:49:38;;;;;;;58.63;32.50;;;9.00;99.90;;;;;;4982707;28;20051;-89
2022/05/03 06:52:04;;;;;;;58.90;30.60;;;9.00;99.90;;;;;;4965377;28;20078;-88
2022/05/03 06:54:30;;;;;;;56.40;30.73;;;9.00;99.90;;;;;;4981584;28;20456;-88
2022/05/03 06:56:55;;;;;;;51.92;28.17;;;9.10;99.90;;;;;;4978948;28;20388;-88
2022/05/03 06:59:21;;;;;;;55.55;29.63;;;9.10;99.90;;;;;;4978641;28;20058;-90
2022/05/03 07:01:46;;;;;;;57.20;29.85;;;9.10;99.90;;;;;;4981046;28;20499;-89
2022/05/03 07:04:17;;;;;;;52.13;27.40;;;9.10;99.90;;;;;;4980908;28;20050;-89
2022/05/03 07:06:44;;;;;;;44.05;22.20;;;9.10;99.90;;;;;;4963318;28;20122;-91
2022/05/03 07:09:12;;;;;;;54.33;21.35;;;9.10;99.90;;;;;;4981948;28;20496;-91
2022/05/03 07:11:38;;;;;;;44.83;20.63;;;9.10;99.90;;;;;;4980595;28;20433;-88
2022/05/03 07:14:04;;;;;;;27.73;12.02;;;9.50;99.90;;;;;;4976539;28;20062;-89
2022/05/03 07:16:30;;;;;;;33.80;10.35;;;9.00;99.90;;;;;;4976280;28;20043;-90
2022/05/03 07:24:29;;;;;;;18.30;8.35;;;9.00;99.90;;;;;;4977760;28;20063;-89
2022/05/03 07:26:55;;;;;;;16.40;6.00;;;9.00;99.90;;;;;;4979966;28;20047;-89
2022/05/03 07:29:21;;;;;;;16.45;6.78;;;9.60;99.90;;;;;;4981119;28;20047;-88
2022/05/03 07:31:47;;;;;;;26.17;6.35;;;8.90;99.90;;;;;;4979748;28;20057;-88
2022/05/03 07:34:12;;;;;;;16.25;6.03;;;8.90;99.90;;;;;;4992194;28;20055;-88
2022/05/03 07:36:41;;;;;;;16.48;6.13;;;9.50;99.90;;;;;;4982617;28;20187;-88
2022/05/03 07:39:07;;;;;;;18.20;6.00;;;9.10;99.90;;;;;;4997958;28;20098;-87
2022/05/03 07:41:32;;;;;;;18.10;6.22;;;9.20;99.90;;;;;;4981498;28;20031;-88
2022/05/03 07:43:58;;;;;;;10.50;5.00;;;9.30;99.90;;;;;;5015291;28;20027;-87
2022/05/03 07:46:23;;;;;;;17.73;5.55;;;9.50;99.90;;;;;;4983421;28;20058;-87
2022/05/03 07:48:49;;;;;;;15.52;5.88;;;9.60;99.90;;;;;;5015654;28;20039;-88
2022/05/03 07:51:17;;;;;;;17.40;6.38;;;9.60;99.90;;;;;;4999006;28;20033;-89
2022/05/03 07:53:45;;;;;;;21.10;7.60;;;9.60;99.90;;;;;;4987692;28;20749;-89
2022/05/03 07:56:13;;;;;;;19.67;6.45;;;9.60;99.90;;;;;;4984932;28;20483;-88
2022/05/03 07:58:39;;;;;;;19.33;5.85;;;9.60;99.90;;;;;;4980105;28;20038;-88
2022/05/03 08:01:05;;;;;;;19.30;6.35;;;9.60;99.90;;;;;;4982137;28;20069;-89
2022/05/03 08:03:31;;;;;;;16.85;6.82;;;9.70;99.90;;;;;;4981193;28;20039;-88
2022/05/03 08:06:01;;;;;;;22.38;7.80;;;9.70;99.90;;;;;;4981582;28;20054;-88
2022/05/03 08:08:27;;;;;;;23.42;7.15;;;9.70;99.90;;;;;;4980852;28;20058;-87
2022/05/03 08:10:52;;;;;;;22.75;7.38;;;9.70;99.90;;;;;;4996400;28;20043;-88
2022/05/03 08:13:18;;;;;;;25.80;7.88;;;9.70;99.90;;;;;;4981772;28;20035;-88
2022/05/03 08:15:44;;;;;;;17.30;6.78;;;9.70;99.90;;;;;;4989449;28;20035;-88
2022/05/03 08:18:09;;;;;;;25.23;8.20;;;9.80;99.90;;;;;;4998171;28;20035;-88
2022/05/03 08:20:35;;;;;;;24.92;8.45;;;9.90;99.90;;;;;;5012518;28;20158;-87
2022/05/03 08:23:01;;;;;;;27.83;7.78;;;9.90;99.90;;;;;;4996743;28;20077;-89
2022/05/03 08:25:27;;;;;;;21.15;6.28;;;9.90;99.90;;;;;;4994942;28;20039;-88
2022/05/03 08:27:52;;;;;;;16.25;5.13;;;9.80;99.90;;;;;;4994241;28;20030;-89
2022/05/03 08:30:18;;;;;;;23.50;5.97;;;9.90;99.90;;;;;;4994955;28;20079;-87
2022/05/03 08:32:44;;;;;;;25.20;4.97;;;9.90;99.90;;;;;;4993689;28;20090;-88
2022/05/03 08:35:09;;;;;;;20.38;5.30;;;9.90;99.90;;;;;;4983970;28;20066;-89
2022/05/03 08:43:05;;;;;;;21.48;5.75;;;10.20;99.90;;;;;;4977677;28;20054;-89
2022/05/03 08:45:32;;;;;;;26.20;6.60;;;10.30;99.90;;;;;;4960548;28;20110;-88
2022/05/03 08:48:01;;;;;;;25.98;6.10;;;10.50;99.90;;;;;;4975973;28;20054;-88
2022/05/03 08:50:27;;;;;;;24.85;6.13;;;9.50;99.90;;;;;;4976483;28;20061;-87
2022/05/03 08:52:57;;;;;;;21.35;6.20;;;10.50;99.90;;;;;;4976246;28;20066;-88
2022/05/03 08:55:23;;;;;;;17.80;5.03;;;10.60;99.90;;;;;;4959696;28;20042;-88
2022/05/03 08:57:50;;;;;;;21.92;5.82;;;10.60;99.90;;;;;;4976990;28;20043;-88
2022/05/03 09:00:17;;;;;;;21.42;6.82;;;10.60;99.90;;;;;;4976158;28;20068;-88
2022/05/03 09:02:45;;;;;;;22.17;5.45;;;10.60;99.90;;;;;;4976463;28;20051;-87
2022/05/03 09:05:11;;;;;;;18.05;5.35;;;10.60;99.90;;;;;;4975134;28;20043;-89
2022/05/03 09:07:47;;;;;;;22.20;5.57;;;10.70;99.90;;;;;;4974547;28;20086;-89
2022/05/03 09:10:24;;;;;;;16.48;3.92;;;10.70;99.90;;;;;;4976331;28;20043;-89
2022/05/03 09:12:55;;;;;;;19.35;4.57;;;10.80;99.90;;;;;;4977333;28;20065;-89
2022/05/03 09:15:32;;;;;;;22.08;4.65;;;10.80;99.90;;;;;;4976365;28;20106;-87
2022/05/03 09:17:59;;;;;;;22.40;4.30;;;10.80;99.90;;;;;;4978787;28;20034;-88
2022/05/03 09:26:20;;;;;;;19.10;3.58;;;11.00;99.90;;;;;;4980178;28;20051;-89
2022/05/03 09:28:46;;;;;;;16.83;4.20;;;11.00;99.90;;;;;;4978551;28;20043;-88
2022/05/03 09:31:30;;;;;;;14.93;3.95;;;11.10;99.90;;;;;;4978481;28;20063;-89
2022/05/03 09:33:57;;;;;;;17.58;4.40;;;11.20;99.90;;;;;;4978370;28;20121;-89
2022/05/03 09:36:23;;;;;;;16.80;3.72;;;11.30;99.90;;;;;;4979640;28;20047;-88
2022/05/03 09:38:51;;;;;;;20.77;3.75;;;11.40;99.90;;;;;;4981192;28;20031;-87
2022/05/03 09:41:17;;;;;;;17.63;3.58;;;11.50;99.90;;;;;;4979816;28;20106;-89
2022/05/03 09:44:04;;;;;;;16.92;3.70;;;11.50;99.90;;;;;;4973311;28;20027;-88
2022/05/03 09:46:31;;;;;;;10.20;2.70;;;11.60;99.90;;;;;;4998609;28;20037;-87
2022/05/03 09:48:59;;;;;;;21.30;3.88;;;11.60;99.90;;;;;;4998771;28;20078;-87
2022/05/03 09:51:24;;;;;;;14.55;3.28;;;11.50;99.90;;;;;;4998635;28;20030;-87
2022/05/03 09:54:00;;;;;;;10.80;2.53;;;11.40;99.90;;;;;;4996040;28;20373;-88
2022/05/03 09:56:27;;;;;;;16.27;3.45;;;11.80;99.90;;;;;;4979661;28;20126;-87
2022/05/03 09:59:03;;;;;;;21.33;4.15;;;11.70;99.90;;;;;;4981654;28;20054;-89
2022/05/03 10:01:30;;;;;;;16.47;3.40;;;11.80;99.90;;;;;;4980756;28;20050;-88
2022/05/03 10:03:56;;;;;;;19.77;4.07;;;12.50;99.90;;;;;;4981399;28;20046;-88
2022/05/03 10:06:23;;;;;;;10.52;3.42;;;12.20;99.90;;;;;;4964088;28;20051;-89
2022/05/03 10:08:53;;;;;;;24.50;4.43;;;12.20;99.90;;;;;;4985984;28;20047;-88
2022/05/03 10:11:21;;;;;;;16.00;3.60;;;13.10;99.90;;;;;;4986332;28;20042;-89
2022/05/03 10:13:47;;;;;;;16.35;3.20;;;12.60;99.90;;;;;;4984188;28;20050;-89
2022/05/03 10:22:00;;;;;;;12.75;2.83;;;14.10;99.90;;;;;;4983708;28;20050;-89
2022/05/03 10:24:26;;;;;;;16.05;4.00;;;13.30;99.90;;;;;;4980714;28;20050;-88
2022/05/03 10:27:02;;;;;;;13.38;2.85;;;13.90;99.90;;;;;;4982408;28;20050;-89
2022/05/03 10:29:33;;;;;;;21.83;3.38;;;13.40;99.90;;;;;;4984699;28;20102;-88
2022/05/03 10:32:15;;;;;;;11.93;3.00;;;13.90;99.90;;;;;;4988832;28;20121;-89
2022/05/03 10:34:53;;;;;;;10.60;3.60;;;13.40;99.90;;;;;;4987102;28;20061;-88
2022/05/03 10:37:33;;;;;;;11.00;2.97;;;13.40;96.50;;;;;;4981445;28;20407;-88
2022/05/03 10:40:00;;;;;;;13.98;3.20;;;14.00;94.70;;;;;;4979802;28;20062;-88
2022/05/03 10:42:28;;;;;;;11.98;3.70;;;14.10;97.10;;;;;;4961993;28;20046;-89
2022/05/03 10:44:53;;;;;;;11.23;2.78;;;14.80;93.30;;;;;;4979753;28;20619;-88
2022/05/03 10:47:48;;;;;;;10.98;2.78;;;14.00;89.10;;;;;;4981487;28;20082;-88
2022/05/03 10:50:16;;;;;;;7.93;2.25;;;14.20;86.10;;;;;;4963596;28;20051;-89
2022/05/03 10:52:45;;;;;;;10.27;2.78;;;14.40;86.30;;;;;;4980737;28;20057;-89
2022/05/03 10:55:14;;;;;;;10.40;2.60;;;14.60;74.60;;;;;;4978455;28;20510;-89
2022/05/03 10:58:18;;;;;;;14.25;2.30;;;14.30;70.60;;;;;;4978339;28;20480;-89
2022/05/03 11:01:03;;;;;;;13.50;3.55;;;14.10;75.40;;;;;;4961557;28;20063;-90
2022/05/03 11:03:37;;;;;;;7.45;2.40;;;14.40;68.70;;;;;;4979537;28;20385;-89
2022/05/03 11:06:24;;;;;;;11.63;2.78;;;14.90;66.00;;;;;;4979015;28;20055;-89
2022/05/03 11:09:05;;;;;;;7.50;2.45;;;15.10;60.10;;;;;;4978980;28;20047;-88
2022/05/03 11:11:39;;;;;;;13.40;2.50;;;15.60;54.10;;;;;;4978484;28;20053;-89
2022/05/03 11:14:21;;;;;;;5.70;1.95;;;16.00;40.50;;;;;;4979097;28;20058;-89
2022/05/03 11:17:05;;;;;;;9.98;2.65;;;15.30;40.50;;;;;;4977440;28;20084;-89
2022/05/03 11:19:43;;;;;;;9.80;2.25;;;15.60;40.90;;;;;;4978644;28;20046;-88
2022/05/03 11:22:11;;;;;;;11.50;1.98;;;14.50;44.60;;;;;;4961573;28;20493;-89
2022/05/03 11:24:41;;;;;;;6.05;2.22;;;14.60;54.90;;;;;;4977011;28;20479;-89
2022/05/03 11:27:09;;;;;;;7.85;1.88;;;14.50;56.30;;;;;;4978853;28;20097;-90
2022/05/03 11:29:47;;;;;;;12.63;1.83;;;14.40;58.00;;;;;;4976917;28;20463;-89
2022/05/03 11:32:14;;;;;;;10.98;2.33;;;14.50;57.70;;;;;;4979683;28;20051;-89
2022/05/03 11:34:40;;;;;;;10.45;1.67;;;14.80;54.00;;;;;;4979069;28;20388;-89
2022/05/03 11:37:09;;;;;;;9.00;2.22;;;14.60;51.20;;;;;;4978904;28;20127;-89
2022/05/03 11:39:38;;;;;;;8.60;1.63;;;14.50;55.30;;;;;;4979557;28;20042;-88
2022/05/03 11:42:08;;;;;;;10.88;1.90;;;14.70;52.00;;;;;;4981410;28;20070;-88
2022/05/03 11:44:35;;;;;;;7.32;2.10;;;15.20;49.30;;;;;;4983063;28;20054;-90
2022/05/03 11:47:03;;;;;;;10.23;2.38;;;14.90;44.00;;;;;;4993869;28;20031;-88
2022/05/03 11:49:31;;;;;;;9.35;1.88;;;15.00;37.80;;;;;;5000071;28;20069;-88
2022/05/03 11:57:42;;;;;;;10.02;1.60;;;14.90;41.70;;;;;;4980668;28;20047;-89
2022/05/03 12:00:12;;;;;;;8.13;2.20;;;15.00;39.90;;;;;;4979138;28;20435;-89
2022/05/03 12:02:43;;;;;;;12.50;2.25;;;15.70;41.10;;;;;;4980457;28;20349;-89
2022/05/03 12:05:17;;;;;;;7.60;1.98;;;15.90;30.00;;;;;;4979102;28;20050;-90
2022/05/03 12:07:45;;;;;;;9.13;2.13;;;15.60;26.80;;;;;;4978840;28;20987;-89
2022/05/03 12:10:14;;;;;;;9.27;1.98;;;15.50;31.80;;;;;;4978356;28;20082;-89
2022/05/03 12:12:43;;;;;;;7.82;1.95;;;15.40;32.90;;;;;;4977830;28;20059;-90
2022/05/03 12:15:20;;;;;;;8.05;2.15;;;15.10;31.00;;;;;;4977151;28;20047;-89
2022/05/03 12:17:53;;;;;;;7.50;1.90;;;15.00;31.90;;;;;;4978483;28;20050;-89
2022/05/03 12:20:19;;;;;;;6.38;1.50;;;14.30;36.00;;;;;;4978943;28;20043;-89
2022/05/03 12:22:44;;;;;;;9.40;1.92;;;14.50;37.80;;;;;;4978223;28;20043;-89
2022/05/03 12:25:24;;;;;;;8.77;2.13;;;14.30;39.50;;;;;;4978232;28;20446;-89
2022/05/03 12:27:50;;;;;;;7.72;1.50;;;14.20;41.40;;;;;;4978324;28;20419;-90
2022/05/03 12:30:16;;;;;;;7.85;1.77;;;14.20;41.00;;;;;;4976443;28;20073;-89
2022/05/03 12:32:47;;;;;;;7.47;1.85;;;14.40;36.60;;;;;;4978272;28;20543;-89
2022/05/03 12:35:14;;;;;;;10.70;1.85;;;14.20;41.90;;;;;;4978968;28;20126;-90
2022/05/03 12:37:52;;;;;;;9.38;1.95;;;14.10;40.10;;;;;;4979634;28;20042;-90
2022/05/03 12:40:26;;;;;;;5.50;1.60;;;13.80;44.50;;;;;;4978638;28;20042;-88
2022/05/03 12:42:52;;;;;;;8.75;2.33;;;13.90;46.70;;;;;;4978711;28;20479;-90
2022/05/03 12:45:21;;;;;;;7.18;1.75;;;13.90;46.30;;;;;;4977879;28;20089;-89
2022/05/03 12:47:48;;;;;;;8.30;1.77;;;14.50;45.20;;;;;;4977840;28;20054;-90
2022/05/03 12:50:15;;;;;;;10.20;2.75;;;14.60;41.60;;;;;;4978169;28;20368;-90
2022/05/03 12:52:45;;;;;;;7.70;2.10;;;15.20;34.90;;;;;;4960326;28;20035;-88
2022/05/03 12:55:10;;;;;;;6.65;1.98;;;14.70;36.70;;;;;;4977596;28;20058;-89
2022/05/03 13:00:21;;;;;;;10.57;2.13;;;14.60;38.30;;;;;;4981507;28;20166;-88
2022/05/03 13:02:50;;;;;;;10.07;1.85;;;14.70;33.40;;;;;;4996610;28;20134;-89
2022/05/03 13:05:17;;;;;;;12.30;2.33;;;15.70;33.30;;;;;;4963635;28;20039;-89
2022/05/03 13:07:45;;;;;;;4.85;1.70;;;16.10;31.00;;;;;;4978931;28;20093;-89
2022/05/03 13:10:13;;;;;;;6.93;1.60;;;15.90;23.20;;;;;;4979037;28;20043;-89
2022/05/03 13:12:46;;;;;;;6.47;1.90;;;14.90;25.80;;;;;;4980049;28;20054;-89
2022/05/03 13:15:15;;;;;;;7.15;1.58;;;14.90;29.40;;;;;;4964614;28;20039;-89
2022/05/03 13:17:44;;;;;;;7.90;2.30;;;15.80;26.60;;;;;;4980643;28;20046;-88
2022/05/03 13:20:10;;;;;;;10.38;1.95;;;17.60;20.30;;;;;;4983374;28;20186;-89
2022/05/03 13:22:47;;;;;;;13.05;3.75;;;18.40;10.40;;;;;;4984169;28;20074;-89
2022/05/03 13:25:13;;;;;;;6.55;2.10;;;19.60;10.00;;;;;;4982415;28;20480;-89
2022/05/03 13:27:39;;;;;;;14.30;4.75;;;19.10;5.30;;;;;;4982916;28;20088;-88
2022/05/03 13:30:05;;;;;;;12.57;2.15;;;19.20;5.40;;;;;;4984387;28;20130;-88